Eliporto militare

IT-0601 · 普利亚, 意大利

罗盘
风向 的 风向 的 风向 到 风向 190° 直升机
风: 7 kt, 3 beaufort
0 ft 1.000 2.000 3.000 4.000 5.000
CAVOK
METAR LIBG 131250Z 19007KT 150V240 CAVOK 38/17 Q1009

METAR Eliporto militare - IT-0601

Eliporto militare是,意大利中的直升机场。 该机场位于纬度40,46974和经度17,27628。 这个机场没有ICAO代码,我们使用IT-0601作为参考。 机场在Brindisi FIR中。

该航空气象观测是针对Taranto-Grottaglie "Marcello Arlotta" Airport在2024年7月13日 14:50, 当地时间进行的。

机场观察

风向为190°,速度为7 kt。 风向在150°和240°之间变化。

天气为CAVOK。这意味着在5.000 ft或MSA(最低安全高度)以下(以较高者为准)以下没有云。这也意味着没有观测到积雨云或高耸的积云,可见度为10 km 或者更多或更高。此外,不会有雾,降雨或其他重要天气。

温度和风寒是38 °C。 露点为17 °C,相对湿度为29%。 海平面上的气压为1009 hPa (QNH)。

白天

今天,太阳从05:32升起,在20:21降落。 这适用于Eliporto militare,世界夏令时可能有所不同。 当地时间与世界标准时间之间的时差为+2 小时。 夏令时目前正在进行中。

公司介绍

我们没有关于这个机场的公司信息。

体会

到Vliegles.nl去找飞行课程,跳伞和其他飞行体验。 浏览页面,了解Eliporto militare附近所有可用的活动。 你也可以使用搜索功能来寻找你所在地附近的特定飞行课程、跳伞或其他飞行体验。

温度 & 天气

温度 38 °C
露点 17 °C
相对湿度 29%
Kp-index 0 (0-9)

白天

日出
05:31
中午
12:56
日落
20:20 (4:24)

小工具

你想在你的网站上有一个关于Eliporto militare的当前航空天气(METAR)的小部件吗?

显示HTML代码
报告变更